Time;durP1;ratioP1;P1;durP2;ratioP2;P2;SDS_P1;SDS_P2;PMS_P1;PMS_P2;Temp;Humidity;BMP_temperature;BMP_pressure;BME280_temperature;BME280_humidity;BME280_pressure;Samples;Min_cycle;Max_cycle;Signal;HPM_P1;HPM_P2
2022/03/24 00:00:38;;;;;;;51.50;30.15;;;;;;;6.78;63.07;102244.72;5040411;28;20128;-89
2022/03/24 00:03:06;;;;;;;49.33;30.02;;;;;;;6.69;63.58;102240.06;5039418;28;20049;-88
2022/03/24 00:05:32;;;;;;;59.70;32.63;;;;;;;6.70;62.65;102241.72;5040263;28;20128;-88
2022/03/24 00:07:59;;;;;;;55.50;31.73;;;;;;;6.76;62.66;102249.16;5039908;28;20084;-88
2022/03/24 00:10:26;;;;;;;52.42;33.45;;;;;;;6.88;62.25;102239.78;5040196;28;20041;-90
2022/03/24 00:12:52;;;;;;;58.03;32.08;;;;;;;7.03;61.46;102244.06;5039821;28;20076;-89
2022/03/24 00:15:20;;;;;;;52.67;30.77;;;;;;;7.06;61.37;102240.44;5040933;28;20136;-89
2022/03/24 00:17:47;;;;;;;50.75;31.90;;;;;;;7.27;61.04;102236.50;5040311;28;20128;-89
2022/03/24 00:20:14;;;;;;;50.85;30.50;;;;;;;7.23;60.81;102229.81;5040845;28;20483;-88
2022/03/24 00:22:41;;;;;;;53.92;32.25;;;;;;;7.21;61.25;102231.69;5041126;28;20057;-88
2022/03/24 00:25:10;;;;;;;54.13;31.35;;;;;;;7.20;60.72;102230.00;5042561;28;20107;-88
2022/03/24 00:27:36;;;;;;;50.38;30.95;;;;;;;7.09;60.66;102237.66;5042537;28;20496;-87
2022/03/24 00:30:05;;;;;;;52.33;31.13;;;;;;;7.04;61.06;102221.50;5043020;28;20416;-87
2022/03/24 00:32:33;;;;;;;57.88;31.70;;;;;;;7.08;61.40;102231.63;5044498;28;20041;-87
2022/03/24 00:34:59;;;;;;;51.00;30.63;;;;;;;6.89;62.87;102220.66;5055880;28;20051;-87
2022/03/24 00:37:26;;;;;;;49.22;31.67;;;;;;;6.78;63.69;102223.06;5057057;28;20030;-87
2022/03/24 00:39:53;;;;;;;49.92;31.63;;;;;;;6.65;64.63;102226.41;5057669;28;20093;-87
2022/03/24 00:42:21;;;;;;;50.45;30.83;;;;;;;6.61;64.72;102224.94;5057334;28;20033;-86
2022/03/24 00:44:47;;;;;;;50.05;31.77;;;;;;;6.50;65.12;102223.91;5058314;28;20085;-86
2022/03/24 00:47:15;;;;;;;50.22;31.90;;;;;;;6.43;66.59;102222.56;5058470;28;20078;-88
2022/03/24 00:49:43;;;;;;;48.33;30.08;;;;;;;6.29;66.42;102219.00;5058256;28;20065;-88
2022/03/24 00:52:10;;;;;;;48.00;30.33;;;;;;;6.25;65.88;102220.13;5058732;28;20033;-86
2022/03/24 00:54:38;;;;;;;55.67;31.25;;;;;;;6.13;66.02;102210.47;5058222;28;20089;-86
2022/03/24 00:57:06;;;;;;;54.75;32.90;;;;;;;6.17;66.68;102219.72;5058247;28;20060;-87
2022/03/24 00:59:32;;;;;;;49.90;31.95;;;;;;;6.12;67.46;102220.94;5057832;28;20092;-85
2022/03/24 01:01:59;;;;;;;53.22;30.77;;;;;;;6.18;66.84;102213.59;5058036;28;20037;-87
2022/03/24 01:04:26;;;;;;;48.92;30.42;;;;;;;6.18;66.08;102218.78;5045579;28;20136;-87
2022/03/24 01:06:54;;;;;;;48.75;30.30;;;;;;;6.21;67.18;102212.59;5040114;28;20051;-88
2022/03/24 01:09:20;;;;;;;54.55;31.33;;;;;;;6.14;67.89;102214.72;5039630;28;20428;-90
2022/03/24 01:11:47;;;;;;;56.33;31.58;;;;;;;6.01;67.63;102210.31;5041661;28;20132;-89
2022/03/24 01:14:16;;;;;;;51.25;31.05;;;;;;;6.08;67.24;102212.47;5039901;28;20137;-89
2022/03/24 01:16:43;;;;;;;52.85;31.27;;;;;;;6.02;68.15;102212.84;5038155;28;20053;-88
2022/03/24 01:19:10;;;;;;;51.53;31.75;;;;;;;6.03;68.10;102218.88;5038137;28;20053;-88
2022/03/24 01:21:38;;;;;;;55.92;31.58;;;;;;;5.92;68.14;102211.69;5037777;28;20113;-88
2022/03/24 01:24:08;;;;;;;50.55;30.60;;;;;;;5.95;68.30;102216.69;5037566;28;20092;-88
2022/03/24 01:26:35;;;;;;;52.45;31.23;;;;;;;5.93;68.21;102213.34;5038499;28;20419;-87
2022/03/24 01:29:01;;;;;;;50.00;30.25;;;;;;;5.84;68.34;102214.66;5038030;28;20053;-88
2022/03/24 01:31:28;;;;;;;56.38;30.50;;;;;;;5.90;67.52;102208.31;5038627;28;20135;-89
2022/03/24 01:33:55;;;;;;;51.60;31.67;;;;;;;5.96;68.50;102220.97;5038540;28;20085;-88
2022/03/24 01:36:22;;;;;;;51.83;31.42;;;;;;;5.96;67.69;102208.81;5037565;28;20156;-89
2022/03/24 01:38:48;;;;;;;49.08;29.95;;;;;;;5.95;67.64;102216.69;5038444;28;20101;-89
2022/03/24 01:41:19;;;;;;;50.65;30.88;;;;;;;5.87;68.32;102211.06;5037993;28;20072;-88
2022/03/24 01:43:46;;;;;;;52.25;30.67;;;;;;;5.80;69.13;102212.34;5037703;28;20061;-87
2022/03/24 01:46:13;;;;;;;53.53;31.13;;;;;;;5.67;69.17;102207.81;5037630;28;20053;-89
2022/03/24 01:48:40;;;;;;;55.58;31.60;;;;;;;5.59;70.14;102207.44;5036888;28;20691;-86
2022/03/24 01:51:07;;;;;;;52.35;32.15;;;;;;;5.61;69.46;102208.19;5036925;28;20080;-88
2022/03/24 01:53:34;;;;;;;52.38;32.90;;;;;;;5.71;68.40;102211.09;5038367;28;20514;-87
2022/03/24 01:56:01;;;;;;;56.72;32.40;;;;;;;5.59;69.32;102199.66;5037251;28;20481;-87
2022/03/24 01:58:30;;;;;;;55.65;32.05;;;;;;;5.51;69.45;102209.63;5036602;28;20555;-88
2022/03/24 02:01:28;;;;;;;52.55;31.30;;;;;;;5.44;69.60;102204.84;5036980;28;20132;-89
2022/03/24 02:03:56;;;;;;;53.08;30.17;;;;;;;5.33;70.42;102198.47;5037770;28;20103;-87
2022/03/24 02:06:24;;;;;;;52.03;30.75;;;;;;;5.44;69.89;102205.69;5036863;28;20471;-86
2022/03/24 02:08:51;;;;;;;49.88;29.88;;;;;;;5.34;70.50;102200.16;5036609;28;20099;-86
2022/03/24 02:11:18;;;;;;;51.25;29.25;;;;;;;5.30;70.54;102203.00;5037907;28;20469;-88
2022/03/24 02:13:45;;;;;;;51.97;30.30;;;;;;;5.26;70.51;102196.28;5037860;28;20129;-88
2022/03/24 02:16:12;;;;;;;48.88;31.38;;;;;;;5.14;72.09;102199.56;5036977;28;20087;-88
2022/03/24 02:18:40;;;;;;;54.60;31.25;;;;;;;5.01;71.52;102186.41;5036828;28;20468;-88
2022/03/24 02:21:06;;;;;;;56.25;30.60;;;;;;;5.07;71.77;102193.03;5036788;28;20053;-88
2022/03/24 02:23:34;;;;;;;50.10;30.88;;;;;;;5.06;71.75;102194.78;5037047;28;20140;-88
2022/03/24 02:26:02;;;;;;;49.33;29.85;;;;;;;4.98;72.30;102190.00;5036579;28;20091;-88
2022/03/24 02:28:29;;;;;;;52.53;29.38;;;;;;;5.03;71.53;102191.53;5036490;28;20054;-86
2022/03/24 02:30:55;;;;;;;47.20;28.98;;;;;;;4.92;72.45;102187.75;5035726;28;20132;-89
2022/03/24 02:33:22;;;;;;;54.58;29.83;;;;;;;4.95;72.39;102192.78;5036295;28;20616;-88
2022/03/24 02:35:51;;;;;;;52.67;30.35;;;;;;;4.88;72.98;102186.22;5036320;28;20133;-89
2022/03/24 02:38:19;;;;;;;48.28;29.83;;;;;;;4.88;72.96;102186.22;5036138;28;20132;-87
2022/03/24 02:40:49;;;;;;;51.75;29.95;;;;;;;4.87;72.21;102194.94;5036218;28;20076;-90
2022/03/24 02:43:18;;;;;;;53.90;31.17;;;;;;;4.82;73.04;102196.94;5036597;28;20475;-89
2022/03/24 02:45:46;;;;;;;54.47;30.02;;;;;;;4.75;73.03;102199.91;5037056;28;20125;-89
2022/03/24 02:48:12;;;;;;;56.67;30.48;;;;;;;4.69;72.71;102205.44;5035654;28;20105;-89
2022/03/24 02:50:39;;;;;;;50.63;30.08;;;;;;;4.63;73.30;102196.22;5037193;28;20053;-89
2022/03/24 02:53:06;;;;;;;50.60;29.85;;;;;;;4.66;73.94;102196.06;5035902;28;20056;-88
2022/03/24 02:55:32;;;;;;;55.00;32.38;;;;;;;4.59;73.78;102195.56;5036202;28;20053;-88
2022/03/24 02:58:00;;;;;;;58.67;30.23;;;;;;;4.58;73.80;102206.00;5036562;28;20156;-88
2022/03/24 03:00:27;;;;;;;55.22;30.42;;;;;;;4.56;74.90;102200.91;5036944;28;20114;-88
2022/03/24 03:02:54;;;;;;;58.83;31.65;;;;;;;4.46;74.95;102193.66;5037477;28;20057;-87
2022/03/24 03:05:21;;;;;;;52.28;29.85;;;;;;;4.40;75.14;102200.00;5037978;28;20077;-88
2022/03/24 03:07:49;;;;;;;55.75;30.08;;;;;;;4.40;75.39;102209.53;5040094;28;20080;-87
2022/03/24 03:10:16;;;;;;;52.65;31.42;;;;;;;4.39;75.78;102211.28;5040365;28;20063;-89
2022/03/24 03:12:44;;;;;;;54.78;30.92;;;;;;;4.45;75.72;102204.94;5039665;28;20085;-87
2022/03/24 03:15:12;;;;;;;53.38;30.98;;;;;;;4.57;75.08;102207.75;5038997;28;20067;-88
2022/03/24 03:17:39;;;;;;;55.58;31.02;;;;;;;4.60;74.79;102211.94;5039880;28;20053;-88
2022/03/24 03:20:07;;;;;;;52.90;30.70;;;;;;;4.49;76.32;102207.31;5040202;28;20448;-89
2022/03/24 03:22:33;;;;;;;55.67;31.35;;;;;;;4.48;75.95;102207.38;5040963;28;20084;-88
2022/03/24 03:25:00;;;;;;;56.90;32.00;;;;;;;4.40;77.00;102210.34;5039724;28;20056;-89
2022/03/24 03:27:27;;;;;;;54.92;30.52;;;;;;;4.43;76.38;102209.38;5039858;28;20042;-89
2022/03/24 03:29:54;;;;;;;49.90;29.95;;;;;;;4.43;77.00;102211.97;5040026;28;20057;-88
2022/03/24 03:32:24;;;;;;;57.47;30.38;;;;;;;4.35;76.96;102214.94;5040948;28;20045;-88
2022/03/24 03:34:50;;;;;;;60.92;31.30;;;;;;;4.32;77.07;102207.31;5041041;28;20491;-89
2022/03/24 03:37:17;;;;;;;59.13;30.52;;;;;;;4.27;77.97;102220.50;5040518;28;20064;-87
2022/03/24 03:39:44;;;;;;;58.78;30.23;;;;;;;4.19;77.82;102212.28;5039085;28;20061;-88
2022/03/24 03:42:10;;;;;;;51.70;30.02;;;;;;;4.14;77.55;102219.44;5039899;28;20136;-88
2022/03/24 03:44:37;;;;;;;57.05;29.98;;;;;;;4.12;77.73;102216.09;5039230;28;20053;-88
2022/03/24 03:47:05;;;;;;;53.03;31.30;;;;;;;4.09;78.25;102211.06;5039887;28;20053;-89
2022/03/24 03:49:34;;;;;;;57.35;29.90;;;;;;;4.11;78.21;102214.41;5039954;28;20093;-88
2022/03/24 03:52:01;;;;;;;54.75;30.60;;;;;;;4.02;78.18;102217.47;5039893;28;20049;-88
2022/03/24 03:54:27;;;;;;;58.00;29.55;;;;;;;4.00;78.25;102206.34;5039205;28;20141;-88
2022/03/24 03:56:54;;;;;;;52.58;30.30;;;;;;;4.02;78.18;102214.03;5039173;28;20049;-88
2022/03/24 03:59:20;;;;;;;54.72;29.00;;;;;;;4.10;78.59;102212.75;5039243;28;20470;-88
2022/03/24 04:01:47;;;;;;;50.10;29.45;;;;;;;4.06;78.46;102220.75;5041449;28;20077;-88
2022/03/24 04:04:14;;;;;;;58.92;31.52;;;;;;;3.96;79.24;102220.34;5039307;28;20065;-88
2022/03/24 04:06:42;;;;;;;60.00;29.67;;;;;;;3.98;79.20;102209.00;5039251;28;20058;-88
2022/03/24 04:09:09;;;;;;;50.58;29.92;;;;;;;3.88;79.69;102207.75;5039292;28;20054;-88
2022/03/24 04:11:36;;;;;;;49.15;28.92;;;;;;;3.88;79.02;102209.50;5039398;28;20061;-88
2022/03/24 04:14:03;;;;;;;55.38;29.02;;;;;;;3.83;79.03;102211.47;5039028;28;20160;-88
2022/03/24 04:16:30;;;;;;;48.08;28.98;;;;;;;3.80;78.95;102214.22;5037967;28;20118;-89
2022/03/24 04:18:57;;;;;;;53.70;29.92;;;;;;;3.73;79.21;102211.13;5039413;28;20049;-89
2022/03/24 04:21:24;;;;;;;58.80;30.02;;;;;;;3.71;79.12;102214.69;5038562;28;20060;-89
2022/03/24 04:23:52;;;;;;;50.15;29.55;;;;;;;3.67;79.43;102220.00;5038214;28;20059;-89
2022/03/24 04:26:18;;;;;;;53.45;29.63;;;;;;;3.65;78.79;102218.41;5038189;28;20069;-90
2022/03/24 04:28:45;;;;;;;55.40;29.35;;;;;;;3.65;79.43;102216.66;5038154;28;20637;-89
2022/03/24 04:31:12;;;;;;;51.35;30.60;;;;;;;3.58;79.65;102214.41;5038908;28;20064;-89
2022/03/24 04:33:39;;;;;;;54.22;30.25;;;;;;;3.56;79.88;102213.66;5038660;28;20093;-89
2022/03/24 04:36:08;;;;;;;52.22;30.52;;;;;;;3.49;79.81;102220.03;5039087;28;20132;-89
2022/03/24 04:38:35;;;;;;;54.53;30.52;;;;;;;3.54;79.38;102205.13;5037438;28;20076;-89
2022/03/24 04:41:04;;;;;;;52.83;30.45;;;;;;;3.48;80.42;102206.25;5038526;28;20050;-89
2022/03/24 04:43:31;;;;;;;53.38;29.75;;;;;;;3.38;80.40;102215.34;5038135;28;20049;-89
2022/03/24 04:45:58;;;;;;;54.75;29.30;;;;;;;3.48;80.68;102221.78;5037444;28;20077;-89
2022/03/24 04:48:25;;;;;;;51.45;29.50;;;;;;;3.37;80.32;102211.06;5037941;28;20137;-89
2022/03/24 04:50:51;;;;;;;51.60;29.48;;;;;;;3.34;80.54;102217.22;5038864;28;20484;-89
2022/03/24 04:53:18;;;;;;;51.22;30.17;;;;;;;3.33;81.29;102218.13;5039313;28;20053;-89
2022/03/24 04:55:46;;;;;;;51.60;29.40;;;;;;;3.27;80.81;102215.03;5038162;28;20496;-89
2022/03/24 04:58:14;;;;;;;58.90;29.85;;;;;;;3.23;81.07;102216.06;5037883;28;20050;-89
2022/03/24 05:00:43;;;;;;;55.78;28.67;;;;;;;3.22;81.40;102211.81;5038416;28;20077;-89
2022/03/24 05:03:10;;;;;;;64.40;30.48;;;;;;;3.18;82.04;102215.44;5038135;28;20496;-89
2022/03/24 05:05:36;;;;;;;58.08;29.33;;;;;;;3.15;82.04;102218.16;5037543;28;20103;-89
2022/03/24 05:08:03;;;;;;;65.75;29.33;;;;;;;3.13;81.89;102220.81;5037066;28;20572;-89
2022/03/24 05:10:30;;;;;;;63.40;29.83;;;;;;;3.10;81.67;102228.72;5037189;28;20049;-88
2022/03/24 05:12:57;;;;;;;56.88;28.98;;;;;;;3.05;82.16;102233.25;5038218;28;20519;-89
2022/03/24 05:15:25;;;;;;;53.95;29.98;;;;;;;3.10;81.42;102222.69;5037520;28;20299;-89
2022/03/24 05:17:51;;;;;;;67.80;29.60;;;;;;;2.96;82.48;102215.56;5037556;28;20117;-90
2022/03/24 05:20:18;;;;;;;61.47;29.25;;;;;;;2.96;81.98;102226.75;5037685;28;20149;-89
2022/03/24 05:22:45;;;;;;;59.58;29.70;;;;;;;2.94;82.00;102232.88;5038166;28;20132;-89
2022/03/24 05:25:11;;;;;;;62.70;29.15;;;;;;;2.97;82.31;102223.25;5037070;28;20053;-89
2022/03/24 05:27:38;;;;;;;54.60;29.13;;;;;;;3.00;82.26;102227.44;5037040;28;20504;-88
2022/03/24 05:30:05;;;;;;;57.83;30.85;;;;;;;3.03;82.18;102237.66;5037456;28;20145;-89
2022/03/24 05:32:34;;;;;;;59.95;29.48;;;;;;;2.97;82.26;102233.59;5036784;28;20140;-88
2022/03/24 05:35:00;;;;;;;51.95;28.85;;;;;;;2.94;81.86;102240.63;5036735;28;20132;-89
2022/03/24 05:37:27;;;;;;;56.90;29.40;;;;;;;3.04;81.95;102238.50;5037850;28;20075;-88
2022/03/24 05:39:54;;;;;;;53.30;29.95;;;;;;;2.97;82.15;102235.34;5037440;28;20049;-88
2022/03/24 05:42:21;;;;;;;59.15;32.58;;;;;;;2.99;82.52;102242.13;5037434;28;20046;-90
2022/03/24 05:44:47;;;;;;;55.00;29.40;;;;;;;3.08;81.92;102237.44;5036808;28;20440;-90
2022/03/24 05:47:14;;;;;;;55.47;30.15;;;;;;;3.10;82.31;102235.63;5037652;28;20073;-90
2022/03/24 05:49:42;;;;;;;57.70;29.30;;;;;;;3.11;82.25;102239.91;5038944;28;20125;-90
2022/03/24 05:52:09;;;;;;;55.60;29.83;;;;;;;3.12;82.03;102233.81;5029509;28;20038;-90
2022/03/24 05:54:35;;;;;;;63.33;28.92;;;;;;;3.18;82.44;102225.78;5016415;28;20353;-89
2022/03/24 05:57:03;;;;;;;58.45;29.20;;;;;;;3.22;81.67;102227.31;5016626;28;20496;-89
2022/03/24 05:59:29;;;;;;;68.55;28.88;;;;;;;3.28;82.00;102242.56;5016985;28;20068;-90
2022/03/24 06:01:56;;;;;;;60.20;28.65;;;;;;;3.26;82.13;102239.22;5016879;28;20069;-89
2022/03/24 06:04:25;;;;;;;67.93;29.67;;;;;;;3.44;81.81;102243.53;4997181;28;20426;-89
2022/03/24 06:06:55;;;;;;;63.38;28.40;;;;;;;3.39;81.78;102242.06;4996930;28;20133;-90
2022/03/24 06:09:22;;;;;;;58.67;32.10;;;;;;;3.42;81.47;102240.16;4996239;28;20482;-90
2022/03/24 06:11:49;;;;;;;64.30;30.27;;;;;;;3.50;80.66;102243.25;4997217;28;20114;-90
2022/03/24 06:14:16;;;;;;;59.95;28.75;;;;;;;3.62;81.15;102245.28;5015839;28;20078;-90
2022/03/24 06:16:43;;;;;;;60.53;30.85;;;;;;;3.71;80.83;102248.34;5018310;28;20141;-89
2022/03/24 06:19:10;;;;;;;63.72;30.05;;;;;;;3.75;80.47;102242.13;5017925;28;20133;-90
2022/03/24 06:21:37;;;;;;;60.00;29.40;;;;;;;3.82;79.92;102252.06;5016805;28;20400;-90
2022/03/24 06:24:06;;;;;;;52.13;29.40;;;;;;;3.88;79.70;102250.94;5017807;28;20054;-89
2022/03/24 06:26:33;;;;;;;57.40;29.00;;;;;;;4.17;79.07;102247.81;5019656;28;20042;-89
2022/03/24 06:29:01;;;;;;;57.58;28.63;;;;;;;4.76;76.55;102250.88;5020692;28;20050;-89
2022/03/24 06:31:28;;;;;;;50.33;27.95;;;;;;;5.47;74.46;102256.59;5022497;28;20049;-90
2022/03/24 06:34:13;;;;;;;56.05;29.02;;;;;;;5.87;72.26;102260.44;5020398;28;20034;-89
2022/03/24 06:36:44;;;;;;;50.53;27.17;;;;;;;6.30;70.76;102254.47;5019675;28;20060;-89
2022/03/24 06:39:21;;;;;;;46.28;26.60;;;;;;;6.53;69.23;102239.31;5022802;28;20053;-90
2022/03/24 06:42:07;;;;;;;49.53;27.40;;;;;;;7.29;66.88;102234.66;5029450;28;20382;-90
2022/03/24 06:44:35;;;;;;;51.15;28.15;;;;;;;7.52;66.04;102267.91;5008394;28;20054;-90
2022/03/24 06:47:02;;;;;;;51.15;28.95;;;;;;;7.82;64.88;102261.66;5010155;28;20053;-90
2022/03/24 06:49:29;;;;;;;47.88;27.13;;;;;;;8.57;62.38;102257.59;5009302;28;20053;-90
2022/03/24 06:51:55;;;;;;;51.55;29.00;;;;;;;8.53;62.06;102267.38;5010247;28;20085;-90
2022/03/24 06:54:23;;;;;;;50.63;29.02;;;;;;;8.73;62.01;102252.16;5019372;28;20038;-89
2022/03/24 06:56:50;;;;;;;50.40;28.83;;;;;;;8.78;62.18;102263.97;5020227;28;20054;-90
2022/03/24 06:59:17;;;;;;;46.58;29.63;;;;;;;9.25;60.70;102246.78;5020450;28;20072;-90
2022/03/24 07:01:43;;;;;;;56.75;29.92;;;;;;;9.51;59.50;102269.28;5020214;28;20106;-89
2022/03/24 07:04:10;;;;;;;49.30;29.63;;;;;;;9.21;60.01;102254.00;5020584;28;20053;-87
2022/03/24 07:06:37;;;;;;;48.70;29.27;;;;;;;9.73;58.79;102265.97;5021358;28;20033;-90
2022/03/24 07:09:04;;;;;;;50.13;29.48;;;;;;;10.13;58.08;102263.03;5021554;28;20058;-89
2022/03/24 07:11:32;;;;;;;48.20;29.08;;;;;;;9.75;59.45;102268.47;5022406;28;20034;-90
2022/03/24 07:13:59;;;;;;;49.72;31.63;;;;;;;10.38;57.64;102272.56;5022008;28;20046;-89
2022/03/24 07:16:26;;;;;;;48.53;30.42;;;;;;;10.18;58.00;102267.00;5022089;28;20049;-90
2022/03/24 07:18:52;;;;;;;47.65;30.60;;;;;;;10.94;56.15;102266.44;5021739;28;20038;-89
2022/03/24 07:21:20;;;;;;;48.25;29.95;;;;;;;11.03;55.30;102264.06;5022314;28;20049;-92
2022/03/24 07:23:47;;;;;;;46.85;29.77;;;;;;;10.69;56.31;102269.28;5022839;28;20086;-92
2022/03/24 07:26:14;;;;;;;50.95;28.92;;;;;;;10.07;57.94;102261.72;5022399;28;20097;-93
2022/03/24 07:28:44;;;;;;;46.67;29.85;;;;;;;10.04;58.15;102274.19;5005168;28;20042;-89
2022/03/24 07:31:12;;;;;;;45.83;29.92;;;;;;;9.84;59.16;102265.19;5019484;28;20063;-89
2022/03/24 07:33:39;;;;;;;49.70;28.60;;;;;;;11.35;54.98;102257.13;5014472;28;20042;-88
2022/03/24 07:36:06;;;;;;;48.25;29.23;;;;;;;11.23;56.23;102260.75;5008532;28;20473;-88
2022/03/24 07:38:33;;;;;;;48.67;30.17;;;;;;;11.55;54.44;102263.41;5005747;28;20149;-88
2022/03/24 07:41:00;;;;;;;42.90;28.65;;;;;;;11.46;54.47;102264.16;5004698;28;20126;-88
2022/03/24 07:43:27;;;;;;;46.35;30.52;;;;;;;12.11;51.97;102269.34;5005125;28;20061;-90
2022/03/24 07:45:55;;;;;;;50.58;31.98;;;;;;;11.48;54.15;102272.72;5005538;28;20092;-90
2022/03/24 07:48:25;;;;;;;50.67;31.05;;;;;;;12.47;51.86;102277.75;5005680;28;20062;-88
2022/03/24 07:50:53;;;;;;;51.92;31.33;;;;;;;12.35;50.92;102273.50;5006304;28;20084;-90
2022/03/24 07:53:30;;;;;;;56.75;33.17;;;;;;;12.44;51.43;102267.50;5003413;28;20114;-90
2022/03/24 07:55:58;;;;;;;48.03;30.27;;;;;;;13.03;51.04;102272.94;5004937;28;20030;-92
2022/03/24 07:58:25;;;;;;;59.67;31.42;;;;;;;13.20;50.17;102274.16;5006994;28;20104;-93
2022/03/24 08:00:52;;;;;;;56.88;30.95;;;;;;;13.19;49.71;102275.94;5002296;28;20046;-90
2022/03/24 08:03:22;;;;;;;46.80;31.77;;;;;;;13.26;49.55;102268.31;5001453;28;20058;-90
2022/03/24 08:05:49;;;;;;;50.58;31.73;;;;;;;12.93;49.40;102278.13;5001643;28;20057;-89
2022/03/24 08:08:16;;;;;;;54.70;33.97;;;;;;;13.73;48.30;102274.66;5001561;28;20061;-89
2022/03/24 08:10:45;;;;;;;54.38;31.55;;;;;;;13.32;49.44;102278.31;5023788;28;20084;-88
2022/03/24 08:13:13;;;;;;;52.50;32.50;;;;;;;13.78;47.88;102288.22;5040839;28;20087;-88
2022/03/24 08:15:41;;;;;;;54.42;31.95;;;;;;;13.85;48.88;102280.63;5039709;28;20148;-88
2022/03/24 08:18:09;;;;;;;52.80;33.15;;;;;;;14.22;48.29;102292.13;5038726;28;20065;-89
2022/03/24 08:20:38;;;;;;;53.22;32.58;;;;;;;14.05;47.94;102286.75;5039302;28;20139;-88
2022/03/24 08:23:08;;;;;;;51.50;32.17;;;;;;;13.66;48.66;102291.16;5039066;28;20083;-89
2022/03/24 08:25:34;;;;;;;56.10;33.60;;;;;;;14.27;47.22;102289.91;5039518;28;20069;-89
2022/03/24 08:28:02;;;;;;;53.97;33.70;;;;;;;14.49;47.01;102285.34;5039334;28;20096;-89
2022/03/24 08:30:29;;;;;;;49.10;33.58;;;;;;;14.63;46.35;102292.00;5038674;28;20049;-89
2022/03/24 08:32:57;;;;;;;52.42;35.72;;;;;;;14.47;45.99;102293.41;5038440;28;20073;-89
2022/03/24 08:35:23;;;;;;;53.85;35.85;;;;;;;14.28;46.67;102288.09;5038032;28;20049;-88
2022/03/24 08:37:52;;;;;;;54.45;36.38;;;;;;;14.75;46.84;102293.47;5038588;28;20492;-89
2022/03/24 08:40:19;;;;;;;58.75;35.60;;;;;;;14.90;44.65;102292.03;5038094;28;20143;-88
2022/03/24 08:42:45;;;;;;;59.58;37.83;;;;;;;14.90;43.37;102287.59;5037773;28;20046;-89
2022/03/24 08:45:14;;;;;;;59.42;37.67;;;;;;;14.99;42.26;102293.00;5041131;28;20541;-90
2022/03/24 08:47:41;;;;;;;63.50;39.28;;;;;;;15.42;40.44;102287.91;5041255;28;20056;-89
2022/03/24 08:50:10;;;;;;;58.95;38.95;;;;;;;15.21;40.90;102282.88;5037627;28;20132;-88
2022/03/24 08:52:37;;;;;;;52.88;36.58;;;;;;;15.93;40.57;102292.63;5039731;28;20061;-88
2022/03/24 08:55:07;;;;;;;60.50;38.55;;;;;;;15.23;40.18;102293.28;5039441;28;20077;-90
2022/03/24 08:57:34;;;;;;;55.75;38.10;;;;;;;15.78;40.19;102291.47;5040297;28;20060;-88
2022/03/24 09:00:07;;;;;;;54.55;37.95;;;;;;;15.59;40.56;102275.78;5039739;28;20485;-89
2022/03/24 09:02:34;;;;;;;;;;;;;;;15.12;41.38;102289.03;5038743;28;20187;-88
2022/03/24 09:05:01;;;;;;;57.92;38.25;;;;;;;15.25;41.16;102289.53;5038787;28;19919;-88
2022/03/24 09:07:28;;;;;;;52.33;37.38;;;;;;;14.98;42.60;102297.44;5038895;28;20049;-89
2022/03/24 09:09:54;;;;;;;60.08;38.50;;;;;;;14.45;42.94;102283.97;5038869;28;20068;-89
2022/03/24 09:12:23;;;;;;;58.03;37.30;;;;;;;14.80;43.14;102294.69;5038662;28;20053;-88
2022/03/24 09:14:49;;;;;;;59.55;38.75;;;;;;;14.85;42.68;102297.75;5037498;28;20045;-88
2022/03/24 09:17:16;;;;;;;52.08;38.28;;;;;;;14.77;42.95;102294.97;5039811;28;20117;-90
2022/03/24 09:19:43;;;;;;;58.40;38.85;;;;;;;14.89;43.44;102298.28;5038445;28;20085;-89
2022/03/24 09:22:09;;;;;;;56.25;38.25;;;;;;;15.11;42.90;102297.09;5037935;28;20085;-90
2022/03/24 09:24:36;;;;;;;57.88;36.70;;;;;;;15.68;43.08;102289.88;5038951;28;20433;-88
2022/03/24 09:27:05;;;;;;;57.58;38.47;;;;;;;15.25;42.53;102304.53;5041037;28;20050;-88
2022/03/24 09:29:35;;;;;;;58.65;38.20;;;;;;;15.26;40.57;102285.09;5038496;28;20057;-88
2022/03/24 09:32:02;;;;;;;53.78;36.35;;;;;;;15.44;42.59;102296.53;5039292;28;20451;-87
2022/03/24 09:34:28;;;;;;;57.08;38.05;;;;;;;15.38;41.52;102283.91;5037845;28;20117;-87
2022/03/24 09:36:55;;;;;;;55.90;36.80;;;;;;;15.48;42.00;102292.63;5038040;28;20490;-88
2022/03/24 09:39:22;;;;;;;55.10;36.47;;;;;;;15.53;41.75;102293.00;5037535;28;20204;-87
2022/03/24 09:41:48;;;;;;;53.90;36.45;;;;;;;15.43;40.32;102289.59;5038236;28;20112;-87
2022/03/24 09:44:16;;;;;;;58.33;37.35;;;;;;;15.46;40.40;102281.38;5038051;28;20504;-87
2022/03/24 09:46:44;;;;;;;54.00;35.95;;;;;;;15.50;40.98;102297.75;5037170;28;20045;-87
2022/03/24 09:49:11;;;;;;;55.47;36.63;;;;;;;15.45;41.79;102292.06;5037408;28;20136;-87
2022/03/24 09:51:40;;;;;;;53.30;35.47;;;;;;;15.62;41.01;102288.66;5037405;28;20105;-87
2022/03/24 09:54:08;;;;;;;60.80;35.58;;;;;;;15.63;42.05;102287.66;5037311;28;20411;-87
2022/03/24 09:56:35;;;;;;;61.08;37.75;;;;;;;15.51;42.10;102294.13;5037057;28;20101;-87
2022/03/24 09:59:02;;;;;;;57.97;36.08;;;;;;;15.72;41.37;102291.22;5036492;28;20064;-88
2022/03/24 10:01:28;;;;;;;61.00;37.28;;;;;;;15.12;40.72;102289.03;5037224;28;20079;-88
2022/03/24 10:04:05;;;;;;;52.13;36.50;;;;;;;15.29;42.19;102295.34;5036488;28;20132;-88
2022/03/24 10:06:32;;;;;;;55.35;37.00;;;;;;;15.24;40.91;102292.31;5037179;28;20128;-88
2022/03/24 10:08:59;;;;;;;60.42;37.85;;;;;;;14.99;42.66;102287.72;5035938;28;20281;-86
2022/03/24 10:11:27;;;;;;;54.70;37.13;;;;;;;14.94;41.47;102294.25;5036172;28;20136;-87
2022/03/24 10:13:55;;;;;;;57.05;37.03;;;;;;;15.54;41.46;102284.09;5035705;28;20217;-87
2022/03/24 10:16:41;;;;;;;56.55;37.67;;;;;;;15.76;41.17;102279.41;5017372;28;20050;-87
2022/03/24 10:19:11;;;;;;;61.17;39.08;;;;;;;15.56;41.52;102271.63;5022153;28;20112;-88
2022/03/24 10:21:39;;;;;;;55.33;38.00;;;;;;;15.93;41.13;102284.69;5029618;28;20597;-86
2022/03/24 10:24:11;;;;;;;56.05;37.58;;;;;;;15.86;40.73;102278.34;5023908;28;20085;-87
2022/03/24 10:26:43;;;;;;;58.25;39.70;;;;;;;15.56;41.11;102276.91;5016227;28;20109;-87
2022/03/24 10:29:10;;;;;;;55.33;38.08;;;;;;;15.68;42.38;102276.66;5016971;28;20089;-87
2022/03/24 10:31:39;;;;;;;61.15;38.30;;;;;;;15.80;41.79;102268.41;5013655;28;20443;-87
2022/03/24 10:34:06;;;;;;;51.17;36.25;;;;;;;15.95;39.72;102266.06;5017104;28;20057;-86
2022/03/24 10:36:34;;;;;;;57.70;37.83;;;;;;;15.77;41.04;102273.97;5016453;28;20485;-87
2022/03/24 10:39:04;;;;;;;56.58;37.58;;;;;;;15.90;41.16;102269.16;5017065;28;20053;-87
2022/03/24 10:41:32;;;;;;;61.55;38.65;;;;;;;16.23;40.69;102275.53;5015928;28;20042;-88
2022/03/24 10:44:02;;;;;;;55.70;38.20;;;;;;;16.32;39.64;102272.97;5016374;28;20128;-86
2022/03/24 10:46:30;;;;;;;54.15;36.80;;;;;;;16.44;38.69;102271.72;5016274;28;20489;-86
2022/03/24 10:48:57;;;;;;;60.85;38.63;;;;;;;16.13;39.49;102263.38;5015355;28;20137;-87
2022/03/24 10:51:25;;;;;;;55.45;38.45;;;;;;;16.56;42.03;102265.19;5016471;28;20133;-87
2022/03/24 10:53:55;;;;;;;58.13;38.72;;;;;;;16.82;39.38;102265.22;5016517;28;20132;-86
2022/03/24 10:56:30;;;;;;;59.60;37.42;;;;;;;16.84;38.33;102264.06;5016803;28;20113;-87
2022/03/24 10:58:59;;;;;;;58.90;39.95;;;;;;;16.79;38.94;102265.53;5017092;28;20056;-87
2022/03/24 11:01:27;;;;;;;57.97;38.08;;;;;;;16.72;39.87;102254.75;5015720;28;20589;-88
2022/03/24 11:03:54;;;;;;;60.67;37.15;;;;;;;17.09;39.64;102256.25;5015415;28;20129;-87
2022/03/24 11:06:23;;;;;;;54.17;37.03;;;;;;;17.23;39.18;102260.94;5013264;28;20105;-86
2022/03/24 11:08:56;;;;;;;54.72;38.53;;;;;;;17.34;39.00;102268.59;5003664;28;20054;-87
2022/03/24 11:11:23;;;;;;;;;;;;;;;17.34;35.33;102255.34;4977803;28;20106;-87
2022/03/24 11:13:52;;;;;;;50.38;33.53;;;;;;;17.52;36.43;102258.69;4981359;28;19949;-87
2022/03/24 11:16:20;;;;;;;44.75;30.00;;;;;;;17.50;34.48;102258.03;4995647;28;20046;-88